EPKK

Krakow International Airport

Airport
ICAO code
EPKK
IATA Code
KRK
Summary
ICAO Region
EUR
ICAO Territory
Location

Balice, Lesser Poland

Serving
Krakow
Elevation
791 ft
Coordinates
50° 4' 40" N , 19° 47' 5" E
KCC
Airport WX
Fog
Metar
Observation
EPKK 032000Z 26013KT 9999 -RA FEW007 BKN012 03/01 Q1008
Station
Krakow
Date/Time
2023-02-03 20:00:00
Wind direction
260°
Wind speed
13 kts
Lowest cloud amount
few clouds
Temperature
3°C
Dew point
1°C
Humidity
86%
QNH
1008 hPa
Weather condition
light rain

International airport serving Krakow, Poland.

Climatology

Temperate Marine climate/Oceanic climate (Köppen climate classification Cfb) - Moderately cool summer and comparatively warm winter with a temperature range of only 14°C.

Krakow is one of the easternmost localities in Europe to have an oceanic climate. Krakow lies near the Tatra Mountains, and there is often a Föhn wind, when the temperature rises rapidly, and even in winter reaches to 20°C.

Runways

Designator Length Width Surface Rops
7/25 2550 60 CON Yes/Yes

Airport map

Aerial View

SKYbrary Partners:

Safety knowledge contributed by: